Fdny Mo 34 — WDG3986 — position and weather

sailwx.info

Track history (hours):
 
Tides and Currents Weather Stations Pressure Air Temp Water Temp Dewpoint Dewpoint Depression Visibility Wind Speed Wind Dir Waves Ship Positions

Fdny Mo 34

Owner: NEW YORK CITY FIRE DEPT, BROOKLYN, NY. More information available from US FCC via Universal Licensing System.

Last reported at 2018-Apr-25 21:53 UTC. Time now 2018-Apr-25 22:07 UTC.
Position N 40°38' W 074°04'.

Length 11 m.

Type: Law enforcement. MMSI: 367531750.

Date/timePositionNaut miles runAvg speedWind from/ knotsBaromVisibWave heightAir tempDewpointWater temp
2018-Apr-25 21:53N 40°38' W 074°04'0 0.0
2018-Apr-25 21:14N 40°38' W 074°04'0 0.0
2018-Apr-25 21:00N 40°38' W 074°04'0 0.0
2018-Apr-25 20:30N 40°38' W 074°04'0 0.0
2018-Apr-25 19:47N 40°38' W 074°04'0 0.0
2018-Apr-25 14:43N 40°38' W 074°04'0 0.0
2018-Apr-25 13:37N 40°38' W 074°04'0 0.0
2018-Apr-25 13:28N 40°38' W 074°04'0 0.0
2018-Apr-25 12:11N 40°38' W 074°04'0 0.0
2018-Apr-25 11:50N 40°38' W 074°04'0 0.0
2018-Apr-24 16:11N 40°38' W 074°04'423.3
2018-Apr-24 16:00N 40°41' W 074°01'2 4.6
2018-Apr-24 15:30N 40°42' W 073°58'3 6.9
2018-Apr-24 15:00N 40°40' W 074°01'4 0.1
2018-Apr-23 13:39N 40°36' W 074°03'2 0.1
2018-Apr-22 17:20N 40°38' W 074°04'0 0.0
2018-Apr-22 09:36N 40°38' W 074°04'0 0.0
2018-Apr-22 09:30N 40°38' W 074°04'0 0.0
2018-Apr-22 09:00N 40°38' W 074°04'0 0.0
2018-Apr-22 08:30N 40°38' W 074°04'0 0.0
2018-Apr-22 07:59N 40°38' W 074°04'0 0.0
2018-Apr-22 07:30N 40°38' W 074°04'0 0.0
2018-Apr-22 06:59N 40°38' W 074°04'0 0.0
2018-Apr-22 06:28N 40°38' W 074°04'0 0.0
2018-Apr-22 05:47N 40°38' W 074°04'0 0.0
2018-Apr-22 05:28N 40°38' W 074°04'0 0.0
2018-Apr-22 04:59N 40°38' W 074°04'0 0.0
2018-Apr-22 04:30N 40°38' W 074°04'0 0.0
2018-Apr-22 04:00N 40°38' W 074°04'3 5.7
2018-Apr-22 03:28N 40°36' W 074°01'0 0.5
2018-Apr-22 03:00N 40°36' W 074°01'2 3.2
2018-Apr-22 02:30N 40°36' W 074°03'2 3.5
2018-Apr-22 02:00N 40°38' W 074°04'0 0.0
2018-Apr-22 01:30N 40°38' W 074°04'0 0.0
2018-Apr-22 01:00N 40°38' W 074°04'0 0.0
2018-Apr-22 00:30N 40°38' W 074°04'0 0.0
2018-Apr-22 00:00N 40°38' W 074°04'0 0.0
2018-Apr-21 23:30N 40°38' W 074°04'0 0.0
2018-Apr-21 23:00N 40°38' W 074°04'0 0.0
2018-Apr-21 22:30N 40°38' W 074°04'0 0.0
2018-Apr-21 22:00N 40°38' W 074°04'0 0.0
2018-Apr-21 21:30N 40°38' W 074°04'0 0.0
2018-Apr-21 20:56N 40°38' W 074°04'0 0.0
2018-Apr-21 20:30N 40°38' W 074°04'0 0.0
2018-Apr-21 20:00N 40°38' W 074°04'0 0.0
2018-Apr-21 19:30N 40°38' W 074°04'0 0.0
2018-Apr-21 19:00N 40°38' W 074°04'0 0.0
2018-Apr-21 18:29N 40°38' W 074°04'0 0.0
2018-Apr-21 18:00N 40°38' W 074°04'0 0.0
2018-Apr-21 17:30N 40°38' W 074°04'0 0.0
2018-Apr-21 17:00N 40°38' W 074°04'0 0.0
2018-Apr-21 16:30N 40°38' W 074°04'0 0.0
2018-Apr-21 16:00N 40°38' W 074°04'0 0.0
2018-Apr-21 15:30N 40°38' W 074°04'0 0.0
2018-Apr-21 15:00N 40°38' W 074°04'0 0.0
2018-Apr-21 14:30N 40°38' W 074°04'0 0.0
2018-Apr-21 14:00N 40°38' W 074°04'0 0.0
2018-Apr-21 13:30N 40°38' W 074°04'0 0.0
2018-Apr-21 12:58N 40°38' W 074°04'0 0.0
2018-Apr-21 12:30N 40°38' W 074°04'0 0.0
2018-Apr-21 11:59N 40°38' W 074°04'0 0.0
2018-Apr-21 11:30N 40°38' W 074°04'0 0.0
2018-Apr-21 11:00N 40°38' W 074°04'0 0.0
2018-Apr-21 10:30N 40°38' W 074°04'0 0.0
2018-Apr-21 10:00N 40°38' W 074°04'0 0.0
2018-Apr-21 09:30N 40°38' W 074°04'0 0.0
2018-Apr-21 09:00N 40°38' W 074°04'0 0.0
2018-Apr-21 08:30N 40°38' W 074°04'0 0.0
2018-Apr-21 08:00N 40°38' W 074°04'0 0.0
2018-Apr-21 07:29N 40°38' W 074°04'0 0.0
2018-Apr-21 06:59N 40°38' W 074°04'0 0.0
2018-Apr-21 06:30N 40°38' W 074°04'0 0.0
2018-Apr-21 06:00N 40°38' W 074°04'0 0.0
2018-Apr-21 05:28N 40°38' W 074°04'0 0.0
2018-Apr-21 05:00N 40°38' W 074°04'0 0.0
2018-Apr-21 04:30N 40°38' W 074°04'0 0.0
2018-Apr-21 03:59N 40°38' W 074°04'0 0.0
2018-Apr-21 03:30N 40°38' W 074°04'0 0.0
2018-Apr-21 03:00N 40°38' W 074°04'0 0.0
2018-Apr-21 02:30N 40°38' W 074°04'0 0.0
2018-Apr-21 02:00N 40°38' W 074°04'0 0.0
2018-Apr-21 01:30N 40°38' W 074°04'0 0.0
2018-Apr-21 01:00N 40°38' W 074°04'0 0.0
2018-Apr-21 00:30N 40°38' W 074°04'0 0.0
2018-Apr-21 00:00N 40°38' W 074°04'0 0.0
2018-Apr-20 23:30N 40°38' W 074°04'0 0.0
2018-Apr-20 22:59N 40°38' W 074°04'0 0.0
2018-Apr-20 22:30N 40°38' W 074°04'0 0.0
2018-Apr-20 22:00N 40°38' W 074°04'0 0.0
2018-Apr-20 21:29N 40°38' W 074°04'0 0.0
2018-Apr-20 21:00N 40°38' W 074°04'0 0.0
2018-Apr-20 20:30N 40°38' W 074°04'0 0.0
2018-Apr-20 19:59N 40°38' W 074°04'0 0.0
2018-Apr-20 19:30N 40°38' W 074°04'0 0.0
2018-Apr-20 19:00N 40°38' W 074°04'0 0.0
2018-Apr-20 18:30N 40°38' W 074°04'0 0.0
2018-Apr-20 18:00N 40°38' W 074°04'0 0.0
2018-Apr-20 17:30N 40°38' W 074°04'0 0.0
2018-Apr-20 17:00N 40°38' W 074°04'0 0.0
2018-Apr-20 16:29N 40°38' W 074°04'0 0.0
2018-Apr-20 16:00N 40°38' W 074°04'0 0.0
2018-Apr-20 15:30N 40°38' W 074°04'0 0.0
2018-Apr-20 15:00N 40°38' W 074°04'0 0.0
2018-Apr-20 14:30N 40°38' W 074°04'0 0.0
2018-Apr-20 13:56N 40°38' W 074°04'0 0.0
2018-Apr-20 13:30N 40°38' W 074°04'0 0.0
2018-Apr-20 12:59N 40°38' W 074°04'0 0.0
2018-Apr-20 12:25N 40°38' W 074°04'0 0.0
2018-Apr-20 12:00N 40°38' W 074°04'0 0.0
2018-Apr-20 11:29N 40°38' W 074°04'0 0.0
2018-Apr-20 11:00N 40°38' W 074°04'0 0.0
2018-Apr-20 10:30N 40°38' W 074°04'0 0.0
2018-Apr-20 09:59N 40°38' W 074°04'0 0.0
2018-Apr-20 09:30N 40°38' W 074°04'0 0.0
2018-Apr-20 09:00N 40°38' W 074°04'0 0.0
2018-Apr-20 08:30N 40°38' W 074°04'0 0.0
2018-Apr-20 08:00N 40°38' W 074°04'0 0.0
2018-Apr-20 07:29N 40°38' W 074°04'0 0.0
2018-Apr-20 07:00N 40°38' W 074°04'0 0.0
2018-Apr-20 06:30N 40°38' W 074°04'0 0.0
2018-Apr-20 06:00N 40°38' W 074°04'0 0.0
2018-Apr-20 05:29N 40°38' W 074°04'0 0.0
2018-Apr-20 05:00N 40°38' W 074°04'0 0.0
2018-Apr-20 04:30N 40°38' W 074°04'0 0.0
2018-Apr-20 04:00N 40°38' W 074°04'0 0.0
2018-Apr-20 03:30N 40°38' W 074°04'0 0.0
2018-Apr-20 03:00N 40°38' W 074°04'0 0.0
2018-Apr-20 02:30N 40°38' W 074°04'0 0.0
2018-Apr-20 02:00N 40°38' W 074°04'0 0.0
2018-Apr-20 01:30N 40°38' W 074°04'0 0.0
2018-Apr-20 01:00N 40°38' W 074°04'0 0.0
2018-Apr-20 00:30N 40°38' W 074°04'0 0.0
2018-Apr-20 00:00N 40°38' W 074°04'0 0.0
2018-Apr-19 23:30N 40°38' W 074°04'0 0.0
2018-Apr-19 23:00N 40°38' W 074°04'0 0.0
2018-Apr-19 22:30N 40°38' W 074°04'0 0.0
2018-Apr-19 22:00N 40°38' W 074°04'0 0.0
2018-Apr-19 21:30N 40°38' W 074°04'0 0.0
2018-Apr-19 21:00N 40°38' W 074°04'0 0.0
2018-Apr-19 20:29N 40°38' W 074°04'0 0.0
2018-Apr-19 20:00N 40°38' W 074°04'0 0.0
2018-Apr-19 19:30N 40°38' W 074°04'0 0.0
2018-Apr-19 18:59N 40°38' W 074°04'0 0.0
2018-Apr-19 18:30N 40°38' W 074°04'0 0.0
2018-Apr-19 17:59N 40°38' W 074°04'0 0.0
2018-Apr-19 17:29N 40°38' W 074°04'0 0.0
2018-Apr-19 17:00N 40°38' W 074°04'0 0.0
2018-Apr-19 16:29N 40°38' W 074°04'2 4.0
2018-Apr-19 16:00N 40°40' W 074°04'1 1.1
2018-Apr-19 15:30N 40°40' W 074°05'2 4.5
2018-Apr-19 15:00N 40°38' W 074°04'1 1.1
2018-Apr-19 14:30N 40°38' W 074°04'0 0.0
2018-Apr-19 14:00N 40°38' W 074°04'0 0.0
2018-Apr-19 13:28N 40°38' W 074°04'0 0.0
2018-Apr-19 13:00N 40°38' W 074°04'0 0.0
2018-Apr-19 12:29N 40°38' W 074°04'0 0.0
2018-Apr-19 12:00N 40°38' W 074°04'0 0.0
2018-Apr-19 11:30N 40°38' W 074°04'0 0.0
2018-Apr-19 11:00N 40°38' W 074°04'0 0.0
2018-Apr-19 10:30N 40°38' W 074°04'0 0.0
2018-Apr-19 10:00N 40°38' W 074°04'0 0.0
2018-Apr-19 09:29N 40°38' W 074°04'0 0.0
2018-Apr-19 08:59N 40°38' W 074°04'0 0.0
2018-Apr-19 08:29N 40°38' W 074°04'0 0.0
2018-Apr-19 08:00N 40°38' W 074°04'0 0.0
2018-Apr-19 07:30N 40°38' W 074°04'0 0.0
2018-Apr-19 07:00N 40°38' W 074°04'0 0.0
2018-Apr-19 06:30N 40°38' W 074°04'0 0.0
2018-Apr-19 06:00N 40°38' W 074°04'0 0.0
2018-Apr-19 05:30N 40°38' W 074°04'0 0.0
2018-Apr-19 05:00N 40°38' W 074°04'0 0.0
2018-Apr-19 04:30N 40°38' W 074°04'0 0.0
2018-Apr-19 04:00N 40°38' W 074°04'0 0.0
2018-Apr-19 03:30N 40°38' W 074°04'0 0.0
2018-Apr-19 03:00N 40°38' W 074°04'0 0.0
2018-Apr-19 02:30N 40°38' W 074°04'0 0.0
2018-Apr-19 02:00N 40°38' W 074°04'0 0.0
2018-Apr-19 01:30N 40°38' W 074°04'0 0.0
2018-Apr-19 00:59N 40°38' W 074°04'0 0.0
2018-Apr-19 00:30N 40°38' W 074°04'0 0.0
2018-Apr-18 23:59N 40°38' W 074°04'0 0.0
2018-Apr-18 22:41N 40°38' W 074°04'0 0.0
2018-Apr-18 22:30N 40°38' W 074°04'0 0.0
2018-Apr-18 21:58N 40°38' W 074°04'0 0.0
2018-Apr-18 21:19N 40°38' W 074°04'0 0.0
2018-Apr-18 20:57N 40°38' W 074°04'0 0.0
2018-Apr-18 20:30N 40°38' W 074°04'0 0.0
2018-Apr-18 19:29N 40°38' W 074°04'0 0.0
2018-Apr-18 18:59N 40°38' W 074°04'0 0.0
2018-Apr-18 18:30N 40°38' W 074°04'0 0.0
2018-Apr-18 17:59N 40°38' W 074°04'0 0.0
2018-Apr-18 17:29N 40°38' W 074°04'0 0.0
2018-Apr-18 17:00N 40°38' W 074°04'0 0.0
2018-Apr-18 16:30N 40°38' W 074°04'0 0.0
2018-Apr-18 15:57N 40°38' W 074°04'0 0.0
2018-Apr-18 15:30N 40°38' W 074°04'0 0.0
2018-Apr-18 14:38N 40°38' W 074°04'0 0.0
2018-Apr-18 14:28N 40°38' W 074°04'0 0.0
2018-Apr-18 14:00N 40°38' W 074°04'0 0.0
2018-Apr-18 13:30N 40°38' W 074°04'1 1.2
2018-Apr-18 13:00N 40°38' W 074°04'1 1.2
2018-Apr-18 12:30N 40°38' W 074°04'0 0.0
2018-Apr-18 12:00N 40°38' W 074°04'1 2.8
2018-Apr-18 11:30N 40°39' W 074°05'1 2.6
2018-Apr-18 10:58N 40°38' W 074°04'0 0.0
2018-Apr-18 10:30N 40°38' W 074°04'0 0.0
2018-Apr-18 10:00N 40°38' W 074°04'0 0.0
2018-Apr-18 09:30N 40°38' W 074°04'0 0.0
2018-Apr-18 09:00N 40°38' W 074°04'0 0.0
2018-Apr-18 08:29N 40°38' W 074°04'0 0.0
2018-Apr-18 08:00N 40°38' W 074°04'0 0.0
2018-Apr-18 07:28N 40°38' W 074°04'0 0.0
2018-Apr-18 07:00N 40°38' W 074°04'0 0.0
2018-Apr-18 06:29N 40°38' W 074°04'0 0.0
2018-Apr-18 06:00N 40°38' W 074°04'0 0.0
2018-Apr-18 05:30N 40°38' W 074°04'0 0.0
2018-Apr-18 05:00N 40°38' W 074°04'0 0.0
2018-Apr-18 04:30N 40°38' W 074°04'0 0.0
2018-Apr-18 04:00N 40°38' W 074°04'0 0.0
2018-Apr-18 03:30N 40°38' W 074°04'0 0.0
2018-Apr-18 03:00N 40°38' W 074°04'0 0.0
2018-Apr-18 02:30N 40°38' W 074°04'0 0.0
2018-Apr-18 02:00N 40°38' W 074°04'0 0.0
2018-Apr-18 01:30N 40°38' W 074°04'0 0.0
2018-Apr-18 01:00N 40°38' W 074°04'0 0.0
2018-Apr-18 00:30N 40°38' W 074°04'0 0.0
2018-Apr-17 23:57N 40°38' W 074°04'0 0.0
2018-Apr-17 23:30N 40°38' W 074°04'0 0.0
2018-Apr-17 23:00N 40°38' W 074°04'0 0.0
2018-Apr-17 22:30N 40°38' W 074°04'0 0.0
2018-Apr-17 22:00N 40°38' W 074°04'0 0.0
2018-Apr-17 21:29N 40°38' W 074°04'0 0.0
2018-Apr-17 21:00N 40°38' W 074°04'0 0.0
2018-Apr-17 20:30N 40°38' W 074°04'0 0.0
2018-Apr-17 20:00N 40°38' W 074°04'0 0.0
2018-Apr-17 19:30N 40°38' W 074°04'0 0.0
2018-Apr-17 18:59N 40°38' W 074°04'0 0.0
2018-Apr-17 18:30N 40°38' W 074°04'0 0.0
2018-Apr-17 17:58N 40°38' W 074°04'0 0.0
2018-Apr-17 17:30N 40°38' W 074°04'1 2.3
2018-Apr-17 17:01N 40°39' W 074°04'4 7.9
2018-Apr-17 16:31N 40°43' W 074°03'2 4.5
2018-Apr-17 16:00N 40°44' W 074°01'0 0.0
2018-Apr-17 15:30N 40°44' W 074°01'610.9
2018-Apr-17 14:59N 40°39' W 074°03'2 3.3
2018-Apr-17 14:29N 40°38' W 074°04'0 0.0
2018-Apr-17 13:54N 40°38' W 074°04'0 0.0
2018-Apr-17 13:30N 40°38' W 074°04'0 0.0
2018-Apr-17 12:59N 40°38' W 074°04'0 0.0
2018-Apr-17 12:29N 40°38' W 074°04'0 0.0
2018-Apr-17 12:00N 40°38' W 074°04'0 0.0
2018-Apr-17 11:30N 40°38' W 074°04'0 0.0
2018-Apr-17 11:00N 40°38' W 074°04'0 0.0
2018-Apr-17 10:30N 40°38' W 074°04'0 0.0
2018-Apr-17 09:59N 40°38' W 074°04'0 0.0
2018-Apr-17 09:30N 40°38' W 074°04'0 0.0
2018-Apr-17 09:00N 40°38' W 074°04'0 0.0
2018-Apr-17 08:30N 40°38' W 074°04'0 0.0
2018-Apr-17 08:00N 40°38' W 074°04'0 0.0
2018-Apr-17 07:29N 40°38' W 074°04'0 0.0
2018-Apr-17 07:00N 40°38' W 074°04'0 0.0
2018-Apr-17 06:30N 40°38' W 074°04'0 0.0
2018-Apr-17 06:00N 40°38' W 074°04'0 0.0
2018-Apr-17 05:30N 40°38' W 074°04'0 0.0
2018-Apr-17 05:00N 40°38' W 074°04'0 0.0
2018-Apr-17 04:30N 40°38' W 074°04'0 0.0
2018-Apr-17 03:59N 40°38' W 074°04'0 0.0
2018-Apr-17 03:30N 40°38' W 074°04'0 0.0
2018-Apr-17 03:00N 40°38' W 074°04'0 0.0
2018-Apr-17 02:30N 40°38' W 074°04'0 0.0
2018-Apr-17 02:00N 40°38' W 074°04'0 0.0
2018-Apr-17 01:30N 40°38' W 074°04'0 0.0
2018-Apr-17 01:00N 40°38' W 074°04'0 0.0
2018-Apr-17 00:30N 40°38' W 074°04'0 0.0
2018-Apr-16 23:57N 40°38' W 074°04'0 0.0
2018-Apr-16 23:29N 40°38' W 074°04'0 0.0
2018-Apr-16 23:00N 40°38' W 074°04'0 0.0
2018-Apr-16 22:30N 40°38' W 074°04'0 0.0
2018-Apr-16 21:59N 40°38' W 074°04'0 0.0
2018-Apr-16 21:30N 40°38' W 074°04'0 0.0
2018-Apr-16 21:00N 40°38' W 074°04'0 0.0
2018-Apr-16 20:30N 40°38' W 074°04'0 0.0
2018-Apr-16 20:00N 40°38' W 074°04'612.2
2018-Apr-16 19:30N 40°37' W 074°12'0 0.9
2018-Apr-16 19:00N 40°38' W 074°12'611.9
2018-Apr-16 18:30N 40°38' W 074°04'0 0.0
2018-Apr-16 17:59N 40°38' W 074°04'2 4.9
2018-Apr-16 17:30N 40°36' W 074°02'2 2.8
2018-Apr-16 16:54N 40°35' W 074°04'3 7.3
2018-Apr-16 16:30N 40°38' W 074°04'0 0.0
2018-Apr-16 16:00N 40°38' W 074°04'0 0.0
2018-Apr-16 15:29N 40°38' W 074°04'0 0.0
2018-Apr-16 15:00N 40°38' W 074°04'0 0.0
2018-Apr-16 14:30N 40°38' W 074°04'0 0.0
2018-Apr-16 14:00N 40°38' W 074°04'0 0.0
2018-Apr-16 13:30N 40°38' W 074°04'0 0.0
2018-Apr-16 12:59N 40°38' W 074°04'0 0.0
2018-Apr-16 12:30N 40°38' W 074°04'0 0.0
2018-Apr-16 11:58N 40°38' W 074°04'0 0.0
2018-Apr-16 11:30N 40°38' W 074°04'0 0.0
2018-Apr-16 11:00N 40°38' W 074°04'0 0.0
2018-Apr-16 10:30N 40°38' W 074°04'0 0.0
2018-Apr-16 10:00N 40°38' W 074°04'0 0.0
2018-Apr-16 09:30N 40°38' W 074°04'0 0.0
2018-Apr-16 09:00N 40°38' W 074°04'0 0.0
2018-Apr-16 08:30N 40°38' W 074°04'0 0.0
2018-Apr-16 08:00N 40°38' W 074°04'0 0.0
2018-Apr-16 07:30N 40°38' W 074°04'0 0.0
2018-Apr-16 07:00N 40°38' W 074°04'0 0.0
2018-Apr-16 06:29N 40°38' W 074°04'0 0.0
2018-Apr-16 06:00N 40°38' W 074°04'0 0.0
2018-Apr-16 05:30N 40°38' W 074°04'0 0.0
2018-Apr-16 04:59N 40°38' W 074°04'0 0.0
2018-Apr-16 04:30N 40°38' W 074°04'0 0.0
2018-Apr-16 04:00N 40°38' W 074°04'0 0.0
2018-Apr-16 03:30N 40°38' W 074°04'0 0.0
2018-Apr-16 03:00N 40°38' W 074°04'0 0.0
2018-Apr-16 02:30N 40°38' W 074°04'0 0.0
2018-Apr-16 02:00N 40°38' W 074°04'0 0.0
2018-Apr-16 01:30N 40°38' W 074°04'0 0.0
2018-Apr-16 01:00N 40°38' W 074°04'0 0.0
2018-Apr-16 00:30N 40°38' W 074°04'0 0.0
2018-Apr-16 00:00N 40°38' W 074°04'0 0.0
2018-Apr-15 23:29N 40°38' W 074°04'0 0.0
2018-Apr-15 23:00N 40°38' W 074°04'0 0.0
2018-Apr-15 22:30N 40°38' W 074°04'0 0.0
2018-Apr-15 22:00N 40°38' W 074°04'  
Track history (hours):
 
Tides and Currents Weather Stations Pressure Air Temp Water Temp Dewpoint Dewpoint Depression Visibility Wind Speed Wind Dir Waves Ship Positions

Fdny Mo 34

Owner: NEW YORK CITY FIRE DEPT, BROOKLYN, NY. More information available from US FCC via Universal Licensing System.

Last reported at 2018-Apr-25 21:53 UTC. Time now 2018-Apr-25 22:07 UTC.
Position N 40°38' W 074°04'.

Length 11 m.

Type: Law enforcement. MMSI: 367531750.

Date/timePositionNaut miles runAvg speedWind from/ knotsBaromVisibWave heightAir tempDewpointWater temp
2018-Apr-25 21:53N 40°38' W 074°04'0 0.0
2018-Apr-25 21:14N 40°38' W 074°04'0 0.0
2018-Apr-25 21:00N 40°38' W 074°04'0 0.0
2018-Apr-25 20:30N 40°38' W 074°04'0 0.0
2018-Apr-25 19:47N 40°38' W 074°04'0 0.0
2018-Apr-25 14:43N 40°38' W 074°04'0 0.0
2018-Apr-25 13:37N 40°38' W 074°04'0 0.0
2018-Apr-25 13:28N 40°38' W 074°04'0 0.0
2018-Apr-25 12:11N 40°38' W 074°04'0 0.0
2018-Apr-25 11:50N 40°38' W 074°04'0 0.0
2018-Apr-24 16:11N 40°38' W 074°04'423.3
2018-Apr-24 16:00N 40°41' W 074°01'2 4.6
2018-Apr-24 15:30N 40°42' W 073°58'3 6.9
2018-Apr-24 15:00N 40°40' W 074°01'4 0.1
2018-Apr-23 13:39N 40°36' W 074°03'2 0.1
2018-Apr-22 17:20N 40°38' W 074°04'0 0.0
2018-Apr-22 09:36N 40°38' W 074°04'0 0.0
2018-Apr-22 09:30N 40°38' W 074°04'0 0.0
2018-Apr-22 09:00N 40°38' W 074°04'0 0.0
2018-Apr-22 08:30N 40°38' W 074°04'0 0.0
2018-Apr-22 07:59N 40°38' W 074°04'0 0.0
2018-Apr-22 07:30N 40°38' W 074°04'0 0.0
2018-Apr-22 06:59N 40°38' W 074°04'0 0.0
2018-Apr-22 06:28N 40°38' W 074°04'0 0.0
2018-Apr-22 05:47N 40°38' W 074°04'0 0.0
2018-Apr-22 05:28N 40°38' W 074°04'0 0.0
2018-Apr-22 04:59N 40°38' W 074°04'0 0.0
2018-Apr-22 04:30N 40°38' W 074°04'0 0.0
2018-Apr-22 04:00N 40°38' W 074°04'3 5.7
2018-Apr-22 03:28N 40°36' W 074°01'0 0.5
2018-Apr-22 03:00N 40°36' W 074°01'2 3.2
2018-Apr-22 02:30N 40°36' W 074°03'2 3.5
2018-Apr-22 02:00N 40°38' W 074°04'0 0.0
2018-Apr-22 01:30N 40°38' W 074°04'0 0.0
2018-Apr-22 01:00N 40°38' W 074°04'0 0.0
2018-Apr-22 00:30N 40°38' W 074°04'0 0.0
2018-Apr-22 00:00N 40°38' W 074°04'0 0.0
2018-Apr-21 23:30N 40°38' W 074°04'0 0.0
2018-Apr-21 23:00N 40°38' W 074°04'0 0.0
2018-Apr-21 22:30N 40°38' W 074°04'0 0.0
2018-Apr-21 22:00N 40°38' W 074°04'0 0.0
2018-Apr-21 21:30N 40°38' W 074°04'0 0.0
2018-Apr-21 20:56N 40°38' W 074°04'0 0.0
2018-Apr-21 20:30N 40°38' W 074°04'0 0.0
2018-Apr-21 20:00N 40°38' W 074°04'0 0.0
2018-Apr-21 19:30N 40°38' W 074°04'0 0.0
2018-Apr-21 19:00N 40°38' W 074°04'0 0.0
2018-Apr-21 18:29N 40°38' W 074°04'0 0.0
2018-Apr-21 18:00N 40°38' W 074°04'0 0.0
2018-Apr-21 17:30N 40°38' W 074°04'0 0.0
2018-Apr-21 17:00N 40°38' W 074°04'0 0.0
2018-Apr-21 16:30N 40°38' W 074°04'0 0.0
2018-Apr-21 16:00N 40°38' W 074°04'0 0.0
2018-Apr-21 15:30N 40°38' W 074°04'0 0.0
2018-Apr-21 15:00N 40°38' W 074°04'0 0.0
2018-Apr-21 14:30N 40°38' W 074°04'0 0.0
2018-Apr-21 14:00N 40°38' W 074°04'0 0.0
2018-Apr-21 13:30N 40°38' W 074°04'0 0.0
2018-Apr-21 12:58N 40°38' W 074°04'0 0.0
2018-Apr-21 12:30N 40°38' W 074°04'0 0.0
2018-Apr-21 11:59N 40°38' W 074°04'0 0.0
2018-Apr-21 11:30N 40°38' W 074°04'0 0.0
2018-Apr-21 11:00N 40°38' W 074°04'0 0.0
2018-Apr-21 10:30N 40°38' W 074°04'0 0.0
2018-Apr-21 10:00N 40°38' W 074°04'0 0.0
2018-Apr-21 09:30N 40°38' W 074°04'0 0.0
2018-Apr-21 09:00N 40°38' W 074°04'0 0.0
2018-Apr-21 08:30N 40°38' W 074°04'0 0.0
2018-Apr-21 08:00N 40°38' W 074°04'0 0.0
2018-Apr-21 07:29N 40°38' W 074°04'0 0.0
2018-Apr-21 06:59N 40°38' W 074°04'0 0.0
2018-Apr-21 06:30N 40°38' W 074°04'0 0.0
2018-Apr-21 06:00N 40°38' W 074°04'0 0.0
2018-Apr-21 05:28N 40°38' W 074°04'0 0.0
2018-Apr-21 05:00N 40°38' W 074°04'0 0.0
2018-Apr-21 04:30N 40°38' W 074°04'0 0.0
2018-Apr-21 03:59N 40°38' W 074°04'0 0.0
2018-Apr-21 03:30N 40°38' W 074°04'0 0.0
2018-Apr-21 03:00N 40°38' W 074°04'0 0.0
2018-Apr-21 02:30N 40°38' W 074°04'0 0.0
2018-Apr-21 02:00N 40°38' W 074°04'0 0.0
2018-Apr-21 01:30N 40°38' W 074°04'0 0.0
2018-Apr-21 01:00N 40°38' W 074°04'0 0.0
2018-Apr-21 00:30N 40°38' W 074°04'0 0.0
2018-Apr-21 00:00N 40°38' W 074°04'0 0.0
2018-Apr-20 23:30N 40°38' W 074°04'0 0.0
2018-Apr-20 22:59N 40°38' W 074°04'0 0.0
2018-Apr-20 22:30N 40°38' W 074°04'0 0.0
2018-Apr-20 22:00N 40°38' W 074°04'0 0.0
2018-Apr-20 21:29N 40°38' W 074°04'0 0.0
2018-Apr-20 21:00N 40°38' W 074°04'0 0.0
2018-Apr-20 20:30N 40°38' W 074°04'0 0.0
2018-Apr-20 19:59N 40°38' W 074°04'0 0.0
2018-Apr-20 19:30N 40°38' W 074°04'0 0.0
2018-Apr-20 19:00N 40°38' W 074°04'0 0.0
2018-Apr-20 18:30N 40°38' W 074°04'0 0.0
2018-Apr-20 18:00N 40°38' W 074°04'0 0.0
2018-Apr-20 17:30N 40°38' W 074°04'0 0.0
2018-Apr-20 17:00N 40°38' W 074°04'0 0.0
2018-Apr-20 16:29N 40°38' W 074°04'0 0.0
2018-Apr-20 16:00N 40°38' W 074°04'0 0.0
2018-Apr-20 15:30N 40°38' W 074°04'0 0.0
2018-Apr-20 15:00N 40°38' W 074°04'0 0.0
2018-Apr-20 14:30N 40°38' W 074°04'0 0.0
2018-Apr-20 13:56N 40°38' W 074°04'0 0.0
2018-Apr-20 13:30N 40°38' W 074°04'0 0.0
2018-Apr-20 12:59N 40°38' W 074°04'0 0.0
2018-Apr-20 12:25N 40°38' W 074°04'0 0.0
2018-Apr-20 12:00N 40°38' W 074°04'0 0.0
2018-Apr-20 11:29N 40°38' W 074°04'0 0.0
2018-Apr-20 11:00N 40°38' W 074°04'0 0.0
2018-Apr-20 10:30N 40°38' W 074°04'0 0.0
2018-Apr-20 09:59N 40°38' W 074°04'0 0.0
2018-Apr-20 09:30N 40°38' W 074°04'0 0.0
2018-Apr-20 09:00N 40°38' W 074°04'0 0.0
2018-Apr-20 08:30N 40°38' W 074°04'0 0.0
2018-Apr-20 08:00N 40°38' W 074°04'0 0.0
2018-Apr-20 07:29N 40°38' W 074°04'0 0.0
2018-Apr-20 07:00N 40°38' W 074°04'0 0.0
2018-Apr-20 06:30N 40°38' W 074°04'0 0.0
2018-Apr-20 06:00N 40°38' W 074°04'0 0.0
2018-Apr-20 05:29N 40°38' W 074°04'0 0.0
2018-Apr-20 05:00N 40°38' W 074°04'0 0.0
2018-Apr-20 04:30N 40°38' W 074°04'0 0.0
2018-Apr-20 04:00N 40°38' W 074°04'0 0.0
2018-Apr-20 03:30N 40°38' W 074°04'0 0.0
2018-Apr-20 03:00N 40°38' W 074°04'0 0.0
2018-Apr-20 02:30N 40°38' W 074°04'0 0.0
2018-Apr-20 02:00N 40°38' W 074°04'0 0.0
2018-Apr-20 01:30N 40°38' W 074°04'0 0.0
2018-Apr-20 01:00N 40°38' W 074°04'0 0.0
2018-Apr-20 00:30N 40°38' W 074°04'0 0.0
2018-Apr-20 00:00N 40°38' W 074°04'0 0.0
2018-Apr-19 23:30N 40°38' W 074°04'0 0.0
2018-Apr-19 23:00N 40°38' W 074°04'0 0.0
2018-Apr-19 22:30N 40°38' W 074°04'0 0.0
2018-Apr-19 22:00N 40°38' W 074°04'0 0.0
2018-Apr-19 21:30N 40°38' W 074°04'0 0.0
2018-Apr-19 21:00N 40°38' W 074°04'0 0.0
2018-Apr-19 20:29N 40°38' W 074°04'0 0.0
2018-Apr-19 20:00N 40°38' W 074°04'0 0.0
2018-Apr-19 19:30N 40°38' W 074°04'0 0.0
2018-Apr-19 18:59N 40°38' W 074°04'0 0.0
2018-Apr-19 18:30N 40°38' W 074°04'0 0.0
2018-Apr-19 17:59N 40°38' W 074°04'0 0.0
2018-Apr-19 17:29N 40°38' W 074°04'0 0.0
2018-Apr-19 17:00N 40°38' W 074°04'0 0.0
2018-Apr-19 16:29N 40°38' W 074°04'2 4.0
2018-Apr-19 16:00N 40°40' W 074°04'1 1.1
2018-Apr-19 15:30N 40°40' W 074°05'2 4.5
2018-Apr-19 15:00N 40°38' W 074°04'1 1.1
2018-Apr-19 14:30N 40°38' W 074°04'0 0.0
2018-Apr-19 14:00N 40°38' W 074°04'0 0.0
2018-Apr-19 13:28N 40°38' W 074°04'0 0.0
2018-Apr-19 13:00N 40°38' W 074°04'0 0.0
2018-Apr-19 12:29N 40°38' W 074°04'0 0.0
2018-Apr-19 12:00N 40°38' W 074°04'0 0.0
2018-Apr-19 11:30N 40°38' W 074°04'0 0.0
2018-Apr-19 11:00N 40°38' W 074°04'0 0.0
2018-Apr-19 10:30N 40°38' W 074°04'0 0.0
2018-Apr-19 10:00N 40°38' W 074°04'0 0.0
2018-Apr-19 09:29N 40°38' W 074°04'0 0.0
2018-Apr-19 08:59N 40°38' W 074°04'0 0.0
2018-Apr-19 08:29N 40°38' W 074°04'0 0.0
2018-Apr-19 08:00N 40°38' W 074°04'0 0.0
2018-Apr-19 07:30N 40°38' W 074°04'0 0.0
2018-Apr-19 07:00N 40°38' W 074°04'0 0.0
2018-Apr-19 06:30N 40°38' W 074°04'0 0.0
2018-Apr-19 06:00N 40°38' W 074°04'0 0.0
2018-Apr-19 05:30N 40°38' W 074°04'0 0.0
2018-Apr-19 05:00N 40°38' W 074°04'0 0.0
2018-Apr-19 04:30N 40°38' W 074°04'0 0.0
2018-Apr-19 04:00N 40°38' W 074°04'0 0.0
2018-Apr-19 03:30N 40°38' W 074°04'0 0.0
2018-Apr-19 03:00N 40°38' W 074°04'0 0.0
2018-Apr-19 02:30N 40°38' W 074°04'0 0.0
2018-Apr-19 02:00N 40°38' W 074°04'0 0.0
2018-Apr-19 01:30N 40°38' W 074°04'0 0.0
2018-Apr-19 00:59N 40°38' W 074°04'0 0.0
2018-Apr-19 00:30N 40°38' W 074°04'0 0.0
2018-Apr-18 23:59N 40°38' W 074°04'0 0.0
2018-Apr-18 22:41N 40°38' W 074°04'0 0.0
2018-Apr-18 22:30N 40°38' W 074°04'0 0.0
2018-Apr-18 21:58N 40°38' W 074°04'0 0.0
2018-Apr-18 21:19N 40°38' W 074°04'0 0.0
2018-Apr-18 20:57N 40°38' W 074°04'0 0.0
2018-Apr-18 20:30N 40°38' W 074°04'0 0.0
2018-Apr-18 19:29N 40°38' W 074°04'0 0.0
2018-Apr-18 18:59N 40°38' W 074°04'0 0.0
2018-Apr-18 18:30N 40°38' W 074°04'0 0.0
2018-Apr-18 17:59N 40°38' W 074°04'0 0.0
2018-Apr-18 17:29N 40°38' W 074°04'0 0.0
2018-Apr-18 17:00N 40°38' W 074°04'0 0.0
2018-Apr-18 16:30N 40°38' W 074°04'0 0.0
2018-Apr-18 15:57N 40°38' W 074°04'0 0.0
2018-Apr-18 15:30N 40°38' W 074°04'0 0.0
2018-Apr-18 14:38N 40°38' W 074°04'0 0.0
2018-Apr-18 14:28N 40°38' W 074°04'0 0.0
2018-Apr-18 14:00N 40°38' W 074°04'0 0.0
2018-Apr-18 13:30N 40°38' W 074°04'1 1.2
2018-Apr-18 13:00N 40°38' W 074°04'1 1.2
2018-Apr-18 12:30N 40°38' W 074°04'0 0.0
2018-Apr-18 12:00N 40°38' W 074°04'1 2.8
2018-Apr-18 11:30N 40°39' W 074°05'1 2.6
2018-Apr-18 10:58N 40°38' W 074°04'0 0.0
2018-Apr-18 10:30N 40°38' W 074°04'0 0.0
2018-Apr-18 10:00N 40°38' W 074°04'0 0.0
2018-Apr-18 09:30N 40°38' W 074°04'0 0.0
2018-Apr-18 09:00N 40°38' W 074°04'0 0.0
2018-Apr-18 08:29N 40°38' W 074°04'0 0.0
2018-Apr-18 08:00N 40°38' W 074°04'0 0.0
2018-Apr-18 07:28N 40°38' W 074°04'0 0.0
2018-Apr-18 07:00N 40°38' W 074°04'0 0.0
2018-Apr-18 06:29N 40°38' W 074°04'0 0.0
2018-Apr-18 06:00N 40°38' W 074°04'0 0.0
2018-Apr-18 05:30N 40°38' W 074°04'0 0.0
2018-Apr-18 05:00N 40°38' W 074°04'0 0.0
2018-Apr-18 04:30N 40°38' W 074°04'0 0.0
2018-Apr-18 04:00N 40°38' W 074°04'0 0.0
2018-Apr-18 03:30N 40°38' W 074°04'0 0.0
2018-Apr-18 03:00N 40°38' W 074°04'0 0.0
2018-Apr-18 02:30N 40°38' W 074°04'0 0.0
2018-Apr-18 02:00N 40°38' W 074°04'0 0.0
2018-Apr-18 01:30N 40°38' W 074°04'0 0.0
2018-Apr-18 01:00N 40°38' W 074°04'0 0.0
2018-Apr-18 00:30N 40°38' W 074°04'0 0.0
2018-Apr-17 23:57N 40°38' W 074°04'0 0.0
2018-Apr-17 23:30N 40°38' W 074°04'0 0.0
2018-Apr-17 23:00N 40°38' W 074°04'0 0.0
2018-Apr-17 22:30N 40°38' W 074°04'0 0.0
2018-Apr-17 22:00N 40°38' W 074°04'0 0.0
2018-Apr-17 21:29N 40°38' W 074°04'0 0.0
2018-Apr-17 21:00N 40°38' W 074°04'0 0.0
2018-Apr-17 20:30N 40°38' W 074°04'0 0.0
2018-Apr-17 20:00N 40°38' W 074°04'0 0.0
2018-Apr-17 19:30N 40°38' W 074°04'0 0.0
2018-Apr-17 18:59N 40°38' W 074°04'0 0.0
2018-Apr-17 18:30N 40°38' W 074°04'0 0.0
2018-Apr-17 17:58N 40°38' W 074°04'0 0.0
2018-Apr-17 17:30N 40°38' W 074°04'1 2.3
2018-Apr-17 17:01N 40°39' W 074°04'4 7.9
2018-Apr-17 16:31N 40°43' W 074°03'2 4.5
2018-Apr-17 16:00N 40°44' W 074°01'0 0.0
2018-Apr-17 15:30N 40°44' W 074°01'610.9
2018-Apr-17 14:59N 40°39' W 074°03'2 3.3
2018-Apr-17 14:29N 40°38' W 074°04'0 0.0
2018-Apr-17 13:54N 40°38' W 074°04'0 0.0
2018-Apr-17 13:30N 40°38' W 074°04'0 0.0
2018-Apr-17 12:59N 40°38' W 074°04'0 0.0
2018-Apr-17 12:29N 40°38' W 074°04'0 0.0
2018-Apr-17 12:00N 40°38' W 074°04'0 0.0
2018-Apr-17 11:30N 40°38' W 074°04'0 0.0
2018-Apr-17 11:00N 40°38' W 074°04'0 0.0
2018-Apr-17 10:30N 40°38' W 074°04'0 0.0
2018-Apr-17 09:59N 40°38' W 074°04'0 0.0
2018-Apr-17 09:30N 40°38' W 074°04'0 0.0
2018-Apr-17 09:00N 40°38' W 074°04'0 0.0
2018-Apr-17 08:30N 40°38' W 074°04'0 0.0
2018-Apr-17 08:00N 40°38' W 074°04'0 0.0
2018-Apr-17 07:29N 40°38' W 074°04'0 0.0
2018-Apr-17 07:00N 40°38' W 074°04'0 0.0
2018-Apr-17 06:30N 40°38' W 074°04'0 0.0
2018-Apr-17 06:00N 40°38' W 074°04'0 0.0
2018-Apr-17 05:30N 40°38' W 074°04'0 0.0
2018-Apr-17 05:00N 40°38' W 074°04'0 0.0
2018-Apr-17 04:30N 40°38' W 074°04'0 0.0
2018-Apr-17 03:59N 40°38' W 074°04'0 0.0
2018-Apr-17 03:30N 40°38' W 074°04'0 0.0
2018-Apr-17 03:00N 40°38' W 074°04'0 0.0
2018-Apr-17 02:30N 40°38' W 074°04'0 0.0
2018-Apr-17 02:00N 40°38' W 074°04'0 0.0
2018-Apr-17 01:30N 40°38' W 074°04'0 0.0
2018-Apr-17 01:00N 40°38' W 074°04'0 0.0
2018-Apr-17 00:30N 40°38' W 074°04'0 0.0
2018-Apr-16 23:57N 40°38' W 074°04'0 0.0
2018-Apr-16 23:29N 40°38' W 074°04'0 0.0
2018-Apr-16 23:00N 40°38' W 074°04'0 0.0
2018-Apr-16 22:30N 40°38' W 074°04'0 0.0
2018-Apr-16 21:59N 40°38' W 074°04'0 0.0
2018-Apr-16 21:30N 40°38' W 074°04'0 0.0
2018-Apr-16 21:00N 40°38' W 074°04'0 0.0
2018-Apr-16 20:30N 40°38' W 074°04'0 0.0
2018-Apr-16 20:00N 40°38' W 074°04'612.2
2018-Apr-16 19:30N 40°37' W 074°12'0 0.9
2018-Apr-16 19:00N 40°38' W 074°12'611.9
2018-Apr-16 18:30N 40°38' W 074°04'0 0.0
2018-Apr-16 17:59N 40°38' W 074°04'2 4.9
2018-Apr-16 17:30N 40°36' W 074°02'2 2.8
2018-Apr-16 16:54N 40°35' W 074°04'3 7.3
2018-Apr-16 16:30N 40°38' W 074°04'0 0.0
2018-Apr-16 16:00N 40°38' W 074°04'0 0.0
2018-Apr-16 15:29N 40°38' W 074°04'0 0.0
2018-Apr-16 15:00N 40°38' W 074°04'0 0.0
2018-Apr-16 14:30N 40°38' W 074°04'0 0.0
2018-Apr-16 14:00N 40°38' W 074°04'0 0.0
2018-Apr-16 13:30N 40°38' W 074°04'0 0.0
2018-Apr-16 12:59N 40°38' W 074°04'0 0.0
2018-Apr-16 12:30N 40°38' W 074°04'0 0.0
2018-Apr-16 11:58N 40°38' W 074°04'0 0.0
2018-Apr-16 11:30N 40°38' W 074°04'0 0.0
2018-Apr-16 11:00N 40°38' W 074°04'0 0.0
2018-Apr-16 10:30N 40°38' W 074°04'0 0.0
2018-Apr-16 10:00N 40°38' W 074°04'0 0.0
2018-Apr-16 09:30N 40°38' W 074°04'0 0.0
2018-Apr-16 09:00N 40°38' W 074°04'0 0.0
2018-Apr-16 08:30N 40°38' W 074°04'0 0.0
2018-Apr-16 08:00N 40°38' W 074°04'0 0.0
2018-Apr-16 07:30N 40°38' W 074°04'0 0.0
2018-Apr-16 07:00N 40°38' W 074°04'0 0.0
2018-Apr-16 06:29N 40°38' W 074°04'0 0.0
2018-Apr-16 06:00N 40°38' W 074°04'0 0.0
2018-Apr-16 05:30N 40°38' W 074°04'0 0.0
2018-Apr-16 04:59N 40°38' W 074°04'0 0.0
2018-Apr-16 04:30N 40°38' W 074°04'0 0.0
2018-Apr-16 04:00N 40°38' W 074°04'0 0.0
2018-Apr-16 03:30N 40°38' W 074°04'0 0.0
2018-Apr-16 03:00N 40°38' W 074°04'0 0.0
2018-Apr-16 02:30N 40°38' W 074°04'0 0.0
2018-Apr-16 02:00N 40°38' W 074°04'0 0.0
2018-Apr-16 01:30N 40°38' W 074°04'0 0.0
2018-Apr-16 01:00N 40°38' W 074°04'0 0.0
2018-Apr-16 00:30N 40°38' W 074°04'0 0.0
2018-Apr-16 00:00N 40°38' W 074°04'0 0.0
2018-Apr-15 23:29N 40°38' W 074°04'0 0.0
2018-Apr-15 23:00N 40°38' W 074°04'0 0.0
2018-Apr-15 22:30N 40°38' W 074°04'0 0.0
2018-Apr-15 22:00N 40°38' W 074°04'  

Dump ship's entire track history